Waubay, South Dakota
Current Conditions -  °F | °C
As of 5:53 PM on Friday 21 Nov 2014 (Local Time) from KATY Reporting Station
Broken Clouds Broken Clouds  
Wind Chill: 25°   Ceiling: 12000
Heat Index: 33°   Visibility: 10mi
Dew Point: 27°   Wind: 10mph
Humidity: 78%   Direction: 190°S
Pressure: 29.82"   Gusts: NA
Location:  45.33°N, 97.31°W
Report Text: KATY 212353Z AUTO 19009KT 10SM BKN120 01/M03 A2982 RMK AO2 SLP121 T00061028 10006 21028 58003
Loading
Personal Weather Stations






























Interactive Weather Map New forecast layout! Learn more

10-Day Weather Forecast

Advertisements
Track Severe Weather on mobile